createdAt,value
2019-04-23T00:01:07.987Z,10.30
2019-04-23T00:03:30.576Z,10.20
2019-04-23T00:06:11.817Z,10.20
2019-04-23T00:08:36.249Z,10.20
2019-04-23T00:11:10.641Z,10.10
2019-04-23T00:13:40.348Z,10.10
2019-04-23T00:18:42.216Z,10.00
2019-04-23T00:21:33.422Z,10.00
2019-04-23T00:24:11.455Z,9.90
2019-04-23T00:26:50.389Z,10.00
2019-04-23T00:29:11.716Z,9.90
2019-04-23T00:31:36.179Z,9.90
2019-04-23T00:34:10.804Z,9.90
2019-04-23T00:39:08.329Z,9.80
2019-04-23T00:41:42.638Z,9.70
2019-04-23T00:44:15.181Z,9.70
2019-04-23T00:46:50.691Z,9.60
2019-04-23T00:49:19.774Z,9.60
2019-04-23T00:51:54.819Z,9.60
2019-04-23T00:54:26.276Z,9.60
2019-04-23T00:56:57.038Z,9.60
2019-04-23T00:59:33.215Z,9.60
2019-04-23T01:01:55.785Z,9.60
2019-04-23T01:04:29.061Z,9.50
2019-04-23T01:07:01.024Z,9.40
2019-04-23T01:09:43.726Z,9.30
2019-04-23T01:12:07.515Z,9.40
2019-04-23T01:14:32.523Z,9.40
2019-04-23T01:17:17.038Z,9.30
2019-04-23T01:20:01.629Z,9.30
2019-04-23T01:22:16.657Z,9.40
2019-04-23T01:25:16.422Z,9.30
2019-04-23T01:28:15.921Z,9.20
2019-04-23T01:30:52.871Z,9.30
2019-04-23T01:33:29.724Z,9.20
2019-04-23T01:36:06.431Z,9.20
2019-04-23T01:38:31.084Z,9.10
2019-04-23T01:40:47.435Z,9.10
2019-04-23T01:43:23.585Z,9.10
2019-04-23T01:45:54.556Z,9.10
2019-04-23T01:48:26.176Z,9.00
2019-04-23T01:51:07.857Z,9.00
2019-04-23T01:53:35.118Z,8.90
2019-04-23T01:56:07.082Z,9.00
2019-04-23T02:01:07.181Z,8.90
2019-04-23T02:03:34.716Z,8.90
2019-04-23T02:06:06.710Z,8.80
2019-04-23T02:08:45.907Z,8.90
2019-04-23T02:11:07.930Z,8.90
2019-04-23T02:13:43.427Z,8.90
2019-04-23T02:16:16.833Z,8.80
2019-04-23T02:18:52.772Z,8.70
2019-04-23T02:21:15.437Z,8.70
2019-04-23T02:23:50.807Z,8.70
2019-04-23T02:26:37.190Z,8.70
2019-04-23T02:34:18.583Z,8.60
2019-04-23T02:36:39.928Z,8.70
2019-04-23T02:39:26.509Z,8.60
2019-04-23T02:41:46.883Z,8.50
2019-04-23T02:44:21.115Z,8.40
2019-04-23T02:46:43.541Z,8.50
2019-04-23T02:51:54.345Z,8.50
2019-04-23T02:54:27.178Z,8.50
2019-04-23T03:01:53.982Z,8.40
2019-04-23T03:04:26.821Z,8.40
2019-04-23T03:09:38.660Z,8.30
2019-04-23T03:14:35.656Z,8.20
2019-04-23T03:19:59.373Z,8.10
2019-04-23T03:22:45.148Z,8.10
2019-04-23T03:25:31.117Z,8.10
2019-04-23T03:27:46.445Z,8.10
2019-04-23T03:30:48.741Z,8.10
2019-04-23T03:36:33.697Z,8.10
2019-04-23T03:38:07.988Z,8.10
2019-04-23T03:40:32.414Z,8.00
2019-04-23T03:43:06.646Z,8.00
2019-04-23T03:45:49.190Z,7.90
2019-04-23T03:48:16.807Z,7.90
2019-04-23T03:53:19.859Z,7.90
2019-04-23T03:58:18.728Z,7.90
2019-04-23T04:00:58.887Z,7.90
2019-04-23T04:03:42.339Z,7.80
2019-04-23T04:06:13.799Z,7.90
2019-04-23T04:08:41.598Z,7.90
2019-04-23T04:16:00.354Z,8.00
2019-04-23T04:21:08.729Z,8.10
2019-04-23T04:23:43.187Z,8.20
2019-04-23T04:26:13.433Z,8.30
2019-04-23T04:31:52.299Z,8.30
2019-04-23T04:44:05.225Z,8.60
2019-04-23T04:46:31.862Z,8.50
2019-04-23T04:48:58.859Z,8.40
2019-04-23T04:54:06.434Z,8.70
2019-04-23T04:56:30.282Z,8.90
2019-04-23T04:59:03.682Z,9.20
2019-04-23T05:01:54.167Z,9.50
2019-04-23T05:04:00.058Z,9.30
2019-04-23T05:06:43.899Z,9.50
2019-04-23T05:09:13.078Z,9.60
2019-04-23T05:11:46.152Z,9.90
2019-04-23T05:14:06.741Z,9.80
2019-04-23T05:16:46.809Z,10.00
2019-04-23T05:19:22.141Z,9.90
2019-04-23T05:21:55.623Z,9.90
2019-04-23T05:24:21.776Z,10.30
2019-04-23T05:26:46.489Z,10.60
2019-04-23T05:29:14.532Z,11.10
2019-04-23T05:31:53.345Z,11.00
2019-04-23T05:34:24.035Z,11.00
2019-04-23T05:39:35.749Z,12.30
2019-04-23T05:41:58.613Z,12.80
2019-04-23T05:44:38.345Z,12.50
2019-04-23T05:47:15.020Z,13.10
2019-04-23T05:49:31.757Z,12.60
2019-04-23T05:52:07.515Z,13.20
2019-04-23T05:54:48.197Z,13.60
2019-04-23T05:57:06.681Z,14.50
2019-04-23T05:59:41.880Z,14.90
2019-04-23T06:02:11.353Z,14.20
2019-04-23T06:04:44.661Z,15.40
2019-04-23T06:07:33.322Z,16.20
2019-04-23T06:10:03.240Z,15.90
2019-04-23T06:12:31.943Z,17.30
2019-04-23T06:15:05.642Z,16.90
2019-04-23T06:17:40.548Z,16.10
2019-04-23T06:25:30.789Z,17.80
2019-04-23T06:27:45.966Z,17.80
2019-04-23T06:30:40.793Z,17.00
2019-04-23T06:32:52.479Z,16.80
2019-04-23T06:38:16.267Z,17.80
2019-04-23T06:40:27.432Z,17.40
2019-04-23T06:43:13.177Z,17.50
2019-04-23T06:45:59.671Z,17.80
2019-04-23T06:50:51.090Z,16.90
2019-04-23T06:53:16.197Z,18.10
2019-04-23T06:56:21.014Z,18.30
2019-04-23T06:59:22.240Z,20.20
2019-04-23T07:01:54.068Z,19.40
2019-04-23T07:09:35.245Z,18.00
2019-04-23T07:11:49.825Z,17.00
2019-04-23T07:14:32.233Z,17.30
2019-04-23T07:16:58.584Z,18.10
2019-04-23T07:19:35.481Z,18.40
2019-04-23T07:22:08.186Z,19.00
2019-04-23T07:24:28.595Z,17.60
2019-04-23T07:27:06.600Z,17.70
2019-04-23T07:29:41.713Z,17.70
2019-04-23T07:32:23.024Z,18.60
2019-04-23T07:34:49.481Z,18.10
2019-04-23T07:37:12.601Z,17.70
2019-04-23T07:42:51.189Z,16.60
2019-04-23T07:45:35.054Z,17.10
2019-04-23T07:48:13.250Z,17.50
2019-04-23T07:50:48.042Z,18.20
2019-04-23T07:55:56.824Z,16.70
2019-04-23T07:58:25.752Z,16.80
2019-04-23T08:05:59.137Z,18.90
2019-04-23T08:08:33.254Z,17.70
2019-04-23T08:11:30.637Z,18.10
2019-04-23T08:13:47.765Z,17.40
2019-04-23T08:16:25.973Z,17.40
2019-04-23T08:18:49.536Z,17.70
2019-04-23T08:27:04.232Z,18.50
2019-04-23T08:29:44.287Z,18.70
2019-04-23T08:39:43.550Z,18.90
2019-04-23T08:47:31.875Z,18.80
2019-04-23T08:50:04.265Z,19.70
2019-04-23T08:52:36.982Z,20.10
2019-04-23T08:55:08.695Z,18.00
2019-04-23T08:57:36.628Z,17.90
2019-04-23T09:00:17.938Z,18.60
2019-04-23T09:02:42.253Z,18.50
2019-04-23T09:05:21.221Z,18.70
2019-04-23T09:07:56.901Z,18.40
2019-04-23T09:10:19.618Z,19.00
2019-04-23T09:13:00.782Z,19.60
2019-04-23T09:15:33.402Z,19.10
2019-04-23T09:17:57.781Z,19.70
2019-04-23T09:20:26.403Z,19.40
2019-04-23T09:22:51.821Z,19.30
2019-04-23T09:25:37.318Z,19.20
2019-04-23T09:27:59.930Z,19.30
2019-04-23T09:30:32.563Z,19.50
2019-04-23T09:36:37.768Z,19.50
2019-04-23T09:39:34.600Z,18.60
2019-04-23T09:42:09.145Z,18.70
2019-04-23T09:50:36.540Z,18.80
2019-04-23T09:53:25.137Z,19.10
2019-04-23T09:55:38.783Z,19.80
2019-04-23T09:58:08.231Z,18.60
2019-04-23T10:00:40.747Z,18.40
2019-04-23T10:03:04.460Z,18.50
2019-04-23T10:40:32.191Z,19.10
2019-04-23T10:43:01.248Z,19.50
2019-04-23T10:45:58.184Z,18.90
2019-04-23T10:51:59.952Z,18.60
2019-04-23T11:07:28.703Z,19.60
2019-04-23T11:17:58.314Z,19.20
2019-04-23T11:23:15.176Z,18.70
2019-04-23T11:25:42.792Z,19.80
2019-04-23T11:36:01.386Z,20.00
2019-04-23T11:38:48.853Z,20.20
2019-04-23T11:40:43.615Z,20.50
2019-04-23T11:44:52.208Z,20.40
2019-04-23T11:53:35.546Z,20.60
2019-04-23T11:56:03.951Z,20.00
2019-04-23T11:58:35.753Z,19.30
2019-04-23T12:01:41.950Z,19.40
2019-04-23T12:10:23.529Z,19.40
2019-04-23T12:12:42.895Z,19.60
2019-04-23T12:15:29.494Z,19.10
2019-04-23T12:17:51.208Z,19.10
2019-04-23T12:20:26.800Z,19.30
2019-04-23T12:23:04.302Z,19.00
2019-04-23T12:25:29.123Z,18.90
2019-04-23T12:27:41.960Z,18.90
2019-04-23T12:30:33.630Z,19.10
2019-04-23T12:33:22.132Z,19.30
2019-04-23T12:35:27.795Z,19.10
2019-04-23T12:43:11.670Z,18.80
2019-04-23T12:45:42.197Z,19.20
2019-04-23T12:53:34.690Z,20.00
2019-04-23T12:55:57.850Z,20.00
2019-04-23T12:58:26.918Z,19.90
2019-04-23T13:00:51.412Z,20.00
2019-04-23T13:03:29.831Z,19.90
2019-04-23T13:05:53.981Z,19.40
2019-04-23T13:08:41.533Z,19.30
2019-04-23T13:11:21.574Z,19.50
2019-04-23T13:13:37.451Z,19.80
2019-04-23T13:16:12.389Z,19.70
2019-04-23T13:18:38.183Z,19.70
2019-04-23T13:21:29.904Z,19.50
2019-04-23T13:23:40.943Z,19.50
2019-04-23T13:26:11.836Z,19.30
2019-04-23T13:28:51.236Z,19.20
2019-04-23T13:31:20.453Z,19.20
2019-04-23T13:33:58.054Z,19.40
2019-04-23T13:36:33.021Z,19.60
2019-04-23T13:38:56.975Z,19.50
2019-04-23T13:41:47.968Z,19.40
2019-04-23T13:43:53.117Z,19.30
2019-04-23T13:46:45.532Z,19.10
2019-04-23T13:49:11.437Z,18.90
2019-04-23T13:51:40.208Z,18.80
2019-04-23T13:57:14.411Z,18.90
2019-04-23T13:59:26.365Z,18.90
2019-04-23T14:02:07.599Z,18.50
2019-04-23T14:06:57.537Z,18.60
2019-04-23T14:12:10.618Z,18.20
2019-04-23T14:14:47.902Z,18.20
2019-04-23T14:19:50.671Z,17.70
2019-04-23T14:22:33.730Z,17.50
2019-04-23T14:24:54.483Z,17.10
2019-04-23T14:27:20.094Z,17.30
2019-04-23T14:29:56.496Z,17.50
2019-04-23T14:32:24.683Z,17.70
2019-04-23T14:35:04.329Z,17.90
2019-04-23T14:37:23.523Z,17.90
2019-04-23T14:40:10.989Z,17.90
2019-04-23T14:42:44.917Z,18.00
2019-04-23T14:45:13.427Z,18.50
2019-04-23T14:50:24.333Z,18.50
2019-04-23T14:52:38.657Z,18.70
2019-04-23T15:00:17.600Z,18.30
2019-04-23T15:02:51.923Z,18.50
2019-04-23T15:05:17.530Z,18.70
2019-04-23T15:07:42.147Z,18.80
2019-04-23T15:10:29.683Z,18.70
2019-04-23T15:12:52.069Z,18.60
2019-04-23T15:15:19.519Z,18.60
2019-04-23T15:20:39.452Z,18.60
2019-04-23T15:25:40.298Z,18.50
2019-04-23T15:30:27.725Z,18.30
2019-04-23T15:33:09.786Z,18.40
2019-04-23T15:40:49.931Z,18.30
2019-04-23T15:43:14.433Z,18.20
2019-04-23T15:45:44.521Z,18.30
2019-04-23T15:48:17.192Z,18.20
2019-04-23T15:50:51.727Z,18.40
2019-04-23T15:53:11.423Z,18.30
2019-04-23T15:55:59.461Z,18.40
2019-04-23T15:58:33.510Z,18.30
2019-04-23T16:03:24.576Z,18.30
2019-04-23T16:05:55.194Z,18.20
2019-04-23T16:11:39.680Z,18.40
2019-04-23T16:14:16.775Z,18.50
2019-04-23T16:16:41.240Z,18.40
2019-04-23T16:19:25.891Z,18.10
2019-04-23T16:22:01.875Z,18.00
2019-04-23T16:24:22.142Z,17.90
2019-04-23T16:27:01.701Z,17.90
2019-04-23T16:29:46.895Z,17.90
2019-04-23T16:32:08.556Z,17.80
2019-04-23T16:34:53.631Z,17.60
2019-04-23T16:37:26.464Z,17.50
2019-04-23T16:40:02.948Z,17.50
2019-04-23T16:42:29.262Z,17.40
2019-04-23T16:47:28.457Z,17.30
2019-04-23T16:52:32.736Z,17.20
2019-04-23T16:55:24.224Z,17.20
2019-04-23T16:57:46.064Z,17.20
2019-04-23T17:00:22.914Z,17.10
2019-04-23T17:02:54.683Z,17.10
2019-04-23T17:05:24.823Z,17.10
2019-04-23T17:08:08.973Z,17.10
2019-04-23T17:10:38.828Z,17.10
2019-04-23T17:12:54.833Z,16.90
2019-04-23T17:15:26.020Z,17.00
2019-04-23T17:17:55.728Z,16.90
2019-04-23T17:20:40.954Z,16.80
2019-04-23T17:23:09.553Z,16.90
2019-04-23T17:25:37.631Z,16.90
2019-04-23T17:28:11.181Z,16.80
2019-04-23T17:30:41.309Z,16.70
2019-04-23T17:39:09.673Z,16.50
2019-04-23T17:42:05.364Z,16.50
2019-04-23T17:47:08.731Z,16.50
2019-04-23T17:50:00.126Z,16.40
2019-04-23T17:52:14.393Z,16.30
2019-04-23T17:54:48.440Z,16.20
2019-04-23T17:57:15.261Z,16.20
2019-04-23T18:00:11.545Z,16.20
2019-04-23T18:02:51.702Z,16.30
2019-04-23T18:12:43.839Z,16.20
2019-04-23T18:15:05.059Z,16.10
2019-04-23T18:20:17.864Z,15.80
2019-04-23T18:22:54.088Z,15.90
2019-04-23T18:25:23.928Z,15.80
2019-04-23T18:27:54.620Z,15.90
2019-04-23T18:31:00.000Z,15.90
2019-04-23T18:36:09.772Z,15.70
2019-04-23T18:38:41.587Z,15.80
2019-04-23T18:43:44.910Z,15.80
2019-04-23T18:51:10.174Z,15.70
2019-04-23T18:56:51.477Z,15.60
2019-04-23T18:59:15.841Z,15.50
2019-04-23T19:01:30.875Z,15.50
2019-04-23T19:04:33.265Z,15.50
2019-04-23T19:06:54.882Z,15.50
2019-04-23T19:13:07.723Z,15.30
2019-04-23T19:20:38.049Z,15.10
2019-04-23T19:23:19.069Z,15.10
2019-04-23T19:25:36.590Z,14.90
2019-04-23T19:28:10.483Z,14.70
2019-04-23T19:30:55.024Z,14.50
2019-04-23T19:33:35.201Z,14.40
2019-04-23T19:38:31.082Z,14.20
2019-04-23T19:41:02.181Z,14.00
2019-04-23T19:43:34.092Z,13.80
2019-04-23T19:48:42.773Z,13.60
2019-04-23T19:56:16.909Z,13.40
2019-04-23T19:58:44.913Z,13.30
2019-04-23T20:03:49.682Z,13.10
2019-04-23T20:09:09.697Z,12.90
2019-04-23T20:11:34.979Z,12.80
2019-04-23T20:19:25.338Z,12.70
2019-04-23T20:22:09.077Z,12.70
2019-04-23T20:24:53.576Z,12.70
2019-04-23T20:26:59.467Z,12.70
2019-04-23T20:30:02.834Z,12.70
2019-04-23T20:38:09.325Z,12.70
2019-04-23T20:40:16.681Z,12.60
2019-04-23T20:42:49.745Z,12.60
2019-04-23T20:45:17.000Z,12.60
2019-04-23T20:50:20.621Z,12.70
2019-04-23T20:52:49.693Z,12.60
2019-04-23T20:55:37.012Z,12.50
2019-04-23T20:58:09.466Z,12.50
2019-04-23T21:00:59.294Z,12.40
2019-04-23T21:03:43.694Z,12.30
2019-04-23T21:06:07.205Z,12.30
2019-04-23T21:08:52.334Z,12.30
2019-04-23T21:10:58.370Z,12.30
2019-04-23T21:13:55.073Z,12.30
2019-04-23T21:16:08.983Z,12.10
2019-04-23T21:21:08.214Z,12.20
2019-04-23T21:23:50.406Z,12.10
2019-04-23T21:26:07.973Z,11.90
2019-04-23T21:28:47.390Z,11.80
2019-04-23T21:31:25.535Z,11.70
2019-04-23T21:36:45.579Z,11.70
2019-04-23T21:40:27.370Z,11.70
2019-04-23T21:42:57.334Z,11.60
2019-04-23T21:45:28.467Z,11.60
2019-04-23T21:48:04.450Z,11.60
2019-04-23T21:52:54.432Z,11.50
2019-04-23T21:55:35.208Z,11.50
2019-04-23T22:00:36.495Z,11.50
2019-04-23T22:03:09.872Z,11.40
2019-04-23T22:05:46.042Z,11.40
2019-04-23T22:08:06.797Z,11.40
2019-04-23T22:10:45.809Z,11.50
2019-04-23T22:13:20.316Z,11.40
2019-04-23T22:16:41.030Z,11.50
2019-04-23T22:18:12.878Z,11.60
2019-04-23T22:20:48.919Z,11.50
2019-04-23T22:23:18.168Z,11.50
2019-04-23T22:25:56.966Z,11.60
2019-04-23T22:28:31.446Z,11.70
2019-04-23T22:31:03.981Z,11.70
2019-04-23T22:33:25.185Z,11.60
2019-04-23T22:36:06.214Z,11.60
2019-04-23T22:38:26.039Z,11.70
2019-04-23T22:43:29.978Z,11.60
2019-04-23T22:49:01.311Z,11.70
2019-04-23T22:51:22.831Z,11.50
2019-04-23T22:53:52.239Z,11.50
2019-04-23T22:56:20.865Z,11.60
2019-04-23T22:59:01.520Z,11.60
2019-04-23T23:01:26.142Z,11.50
2019-04-23T23:04:09.321Z,11.40
2019-04-23T23:09:22.538Z,11.50
2019-04-23T23:11:42.827Z,11.60
2019-04-23T23:14:16.742Z,11.60
2019-04-23T23:16:44.795Z,11.60
2019-04-23T23:21:59.669Z,11.70
2019-04-23T23:24:27.009Z,11.70
2019-04-23T23:26:54.157Z,11.70
2019-04-23T23:29:46.724Z,11.70
2019-04-23T23:34:27.857Z,11.90
2019-04-23T23:37:02.153Z,11.80
2019-04-23T23:39:28.316Z,11.70
2019-04-23T23:42:02.799Z,11.60
2019-04-23T23:47:07.282Z,11.60
2019-04-23T23:49:43.832Z,11.70
2019-04-23T23:52:03.198Z,11.70
2019-04-23T23:54:35.866Z,11.60
2019-04-23T23:57:12.513Z,11.60
